Time;durP1;ratioP1;P1;durP2;ratioP2;P2;SDS_P1;SDS_P2;PMS_P1;PMS_P2;Temp;Humidity;BMP_temperature;BMP_pressure;BME280_temperature;BME280_humidity;BME280_pressure;Samples;Min_cycle;Max_cycle;Signal;HPM_P1;HPM_P2
2022/08/14 00:00:17;;;;;;;5.82;3.35;;;;;;;19.66;45.85;98742.44;5226578;28;20514;-73
2022/08/14 00:03:21;;;;;;;6.00;3.20;;;;;;;19.65;45.73;98735.41;5223834;28;20060;-73
2022/08/14 00:06:18;;;;;;;4.43;3.40;;;;;;;19.35;46.60;98726.91;5229291;28;20041;-73
2022/08/14 00:09:18;;;;;;;6.25;3.65;;;;;;;19.27;46.79;98729.81;5213550;28;20055;-73
2022/08/14 00:12:09;;;;;;;5.00;3.10;;;;;;;19.50;46.23;98721.31;5228451;28;20052;-73
2022/08/14 00:15:35;;;;;;;4.10;3.45;;;;;;;19.38;46.27;98706.84;5228656;28;20125;-73
2022/08/14 00:18:33;;;;;;;4.20;2.80;;;;;;;19.21;46.57;98695.69;5223347;28;20044;-72
2022/08/14 00:21:43;;;;;;;3.13;2.83;;;;;;;19.34;46.64;98706.44;5223867;28;20052;-73
2022/08/14 00:24:34;;;;;;;3.78;3.10;;;;;;;19.12;46.78;98689.69;5227575;28;20045;-73
2022/08/14 00:27:25;;;;;;;8.68;3.22;;;;;;;19.08;46.86;98695.69;5225572;28;20040;-72
2022/08/14 00:30:19;;;;;;;3.85;2.90;;;;;;;19.04;47.64;98675.63;5213112;28;20438;-73
2022/08/14 00:33:09;;;;;;;5.85;3.28;;;;;;;19.06;47.14;98685.13;5220610;28;20961;-73
2022/08/14 00:36:06;;;;;;;5.50;2.92;;;;;;;19.17;46.82;98673.78;5225558;28;20049;-73
2022/08/14 00:39:16;;;;;;;4.97;3.70;;;;;;;19.18;46.89;98680.81;5223476;28;20052;-73
2022/08/14 00:42:07;;;;;;;4.45;3.15;;;;;;;19.27;47.47;98675.19;5229294;28;20071;-70
2022/08/14 00:45:18;;;;;;;4.00;3.33;;;;;;;19.23;46.79;98672.94;5226908;28;20047;-71
2022/08/14 00:48:11;;;;;;;5.63;3.33;;;;;;;19.23;46.49;98656.81;5226506;28;20071;-72
2022/08/14 00:51:21;;;;;;;6.38;3.08;;;;;;;19.06;47.45;98669.00;5228761;28;20049;-71
2022/08/14 00:54:13;;;;;;;3.92;2.90;;;;;;;18.70;48.50;98664.81;5223785;28;20059;-74
2022/08/14 00:57:11;;;;;;;3.65;3.25;;;;;;;18.41;49.20;98665.16;5228275;28;20607;-75
2022/08/14 01:00:11;;;;;;;4.60;3.13;;;;;;;18.50;49.27;98666.63;5224778;28;20056;-72
2022/08/14 01:03:22;;;;;;;3.85;3.10;;;;;;;18.30;49.19;98645.91;5228697;28;20053;-71
2022/08/14 01:06:15;;;;;;;4.00;3.13;;;;;;;18.40;49.15;98663.50;5227352;28;20048;-70
2022/08/14 01:09:09;;;;;;;5.25;3.47;;;;;;;18.39;49.54;98673.41;5220674;28;20049;-71
2022/08/14 01:12:01;;;;;;;4.20;3.15;;;;;;;18.57;49.10;98664.78;5226579;28;20060;-73
2022/08/14 01:14:54;;;;;;;9.10;3.25;;;;;;;18.53;49.90;98660.84;5224205;28;20498;-70
2022/08/14 01:21:12;;;;;;;4.82;3.63;;;;;;;18.63;49.68;98669.34;5210740;28;20471;-74
2022/08/14 01:24:03;;;;;;;7.57;3.75;;;;;;;18.28;51.13;98671.31;5218571;28;20088;-74
2022/08/14 01:26:58;;;;;;;5.80;3.42;;;;;;;18.29;50.29;98671.13;5214062;28;20048;-74
2022/08/14 01:29:53;;;;;;;8.68;3.42;;;;;;;18.15;51.00;98666.72;5223881;28;20473;-75
2022/08/14 01:32:53;;;;;;;4.35;3.60;;;;;;;18.13;50.72;98652.69;5223570;28;20059;-75
2022/08/14 01:35:45;;;;;;;4.60;3.20;;;;;;;18.20;50.78;98669.63;5225399;28;20120;-73
2022/08/14 01:38:56;;;;;;;6.63;3.65;;;;;;;18.10;50.88;98653.06;5220622;28;20518;-75
2022/08/14 01:41:55;;;;;;;6.63;3.70;;;;;;;18.23;50.95;98663.84;5225016;28;20056;-74
2022/08/14 01:44:51;;;;;;;4.63;3.65;;;;;;;18.29;50.41;98655.00;5206000;28;20055;-74
2022/08/14 01:47:44;;;;;;;8.05;4.80;;;;;;;17.88;50.78;98640.78;5215756;28;20506;-74
2022/08/14 01:50:34;;;;;;;7.30;3.50;;;;;;;18.05;50.91;98652.88;5225502;28;20051;-73
2022/08/14 01:53:24;;;;;;;5.88;3.78;;;;;;;17.94;51.32;98648.06;5221457;28;20067;-73
2022/08/14 01:56:38;;;;;;;5.70;3.70;;;;;;;17.88;51.10;98633.59;5227552;28;20438;-73
2022/08/14 01:59:31;;;;;;;6.18;3.85;;;;;;;17.79;51.25;98626.75;5223651;28;20055;-74
2022/08/14 02:02:28;;;;;;;4.95;3.92;;;;;;;17.79;51.24;98626.75;5220753;28;20056;-74
2022/08/14 02:05:30;;;;;;;5.72;3.80;;;;;;;17.58;52.05;98622.25;5222151;28;20660;-74
2022/08/14 02:08:29;;;;;;;7.20;4.13;;;;;;;17.72;51.90;98625.88;5225536;28;20045;-71
2022/08/14 02:11:25;;;;;;;5.70;3.90;;;;;;;17.65;51.92;98615.09;5224449;28;20413;-73
2022/08/14 02:14:18;;;;;;;4.28;3.88;;;;;;;17.73;51.58;98616.78;5220784;28;20041;-74
2022/08/14 02:17:22;;;;;;;4.97;3.75;;;;;;;17.50;51.32;98611.72;5225106;28;20083;-74
2022/08/14 02:20:13;;;;;;;5.13;3.70;;;;;;;17.26;51.61;98619.19;5220718;28;20053;-73
2022/08/14 02:23:03;;;;;;;5.15;3.88;;;;;;;17.21;52.27;98605.53;5210956;28;20053;-74
2022/08/14 02:25:54;;;;;;;6.20;3.97;;;;;;;17.34;53.00;98626.25;5222780;28;20127;-75
2022/08/14 02:28:45;;;;;;;6.18;3.80;;;;;;;17.31;52.67;98629.31;5210494;28;20053;-71
2022/08/14 02:31:53;;;;;;;4.43;3.70;;;;;;;17.25;53.16;98630.94;5224877;28;20424;-73
2022/08/14 02:34:43;;;;;;;;;;;;;;;17.21;52.64;98631.50;5220939;28;20064;-73
2022/08/14 02:37:33;;;;;;;7.50;3.90;;;;;;;17.12;53.62;98614.78;5215805;28;19927;-74
2022/08/14 02:40:38;;;;;;;;;;;;;;;17.23;52.95;98614.22;5221029;28;20150;-71
2022/08/14 02:43:29;;;;;;;7.53;3.70;;;;;;;17.25;53.37;98616.69;5225456;28;19935;-73
2022/08/14 02:46:43;;;;;;;9.00;3.88;;;;;;;17.05;53.11;98592.44;5214575;28;20052;-74
2022/08/14 02:49:38;;;;;;;11.00;4.00;;;;;;;17.32;53.26;98593.47;5225172;28;20190;-73
2022/08/14 02:52:32;;;;;;;4.93;3.97;;;;;;;17.00;53.77;98576.16;5226302;28;20056;-75
2022/08/14 02:55:42;;;;;;;5.70;3.72;;;;;;;17.09;53.43;98585.69;5223036;28;20454;-75
2022/08/14 02:58:37;;;;;;;6.97;3.58;;;;;;;17.01;53.32;98580.47;5223990;28;20122;-75
2022/08/14 03:01:33;;;;;;;5.00;3.72;;;;;;;16.99;54.01;98585.22;5224980;28;20423;-72
2022/08/14 03:04:43;;;;;;;4.88;3.83;;;;;;;16.85;53.86;98579.75;5216814;28;20518;-74
2022/08/14 03:07:33;;;;;;;6.03;4.07;;;;;;;17.07;53.62;98560.94;5213475;28;20044;-75
2022/08/14 03:10:23;;;;;;;10.25;4.05;;;;;;;17.12;52.97;98569.25;5223929;28;20546;-73
2022/08/14 03:13:21;;;;;;;5.53;4.32;;;;;;;17.08;53.96;98576.81;5209339;28;20055;-74
2022/08/14 03:16:16;;;;;;;4.93;4.05;;;;;;;16.98;52.93;98572.81;5219388;28;20044;-74
2022/08/14 03:19:16;;;;;;;5.85;4.03;;;;;;;16.70;53.46;98568.25;5225913;28;20045;-75
2022/08/14 03:22:09;;;;;;;5.90;4.60;;;;;;;16.60;54.12;98571.28;5223738;28;20045;-75
2022/08/14 03:25:07;;;;;;;6.72;4.20;;;;;;;16.59;54.00;98555.41;5207305;28;20653;-72
2022/08/14 03:28:05;;;;;;;5.88;3.85;;;;;;;16.47;55.61;98573.00;5209201;28;20585;-73
2022/08/14 03:30:57;;;;;;;9.82;4.00;;;;;;;16.33;55.39;98567.53;5224819;28;20060;-70
2022/08/14 03:33:50;;;;;;;5.10;4.10;;;;;;;16.51;54.68;98561.72;5211312;28;20424;-75
2022/08/14 03:36:43;;;;;;;9.23;4.55;;;;;;;16.91;54.16;98551.34;5217562;28;20479;-74
2022/08/14 03:39:54;;;;;;;6.07;4.38;;;;;;;16.90;54.90;98552.38;5226637;28;20159;-74
2022/08/14 03:42:44;;;;;;;9.60;5.32;;;;;;;16.57;56.72;98555.59;5224410;28;20617;-73
2022/08/14 03:45:37;;;;;;;7.47;4.40;;;;;;;16.67;55.77;98544.56;5220023;28;20044;-74
2022/08/14 03:48:38;;;;;;;5.80;4.00;;;;;;;16.74;54.26;98552.66;5222395;28;20106;-74
2022/08/14 03:51:30;;;;;;;6.05;4.63;;;;;;;16.67;54.36;98545.38;5221153;28;20163;-72
2022/08/14 03:54:20;;;;;;;7.25;4.07;;;;;;;16.66;54.67;98540.25;5222726;28;20143;-72
2022/08/14 03:57:10;;;;;;;7.22;4.97;;;;;;;16.52;55.31;98538.44;5227097;28;20072;-73
2022/08/14 04:00:09;;;;;;;6.97;4.57;;;;;;;16.48;55.43;98539.88;5218879;28;20056;-74
2022/08/14 04:03:20;;;;;;;7.32;4.60;;;;;;;16.35;55.47;98552.09;5222866;28;20095;-74
2022/08/14 04:06:15;;;;;;;7.85;4.05;;;;;;;16.21;55.50;98543.13;5222002;28;20095;-74
2022/08/14 04:09:10;;;;;;;7.38;4.18;;;;;;;16.05;59.18;98542.53;5205040;28;20056;-74
2022/08/14 04:12:01;;;;;;;7.53;4.97;;;;;;;16.37;57.68;98538.53;5208157;28;20056;-74
2022/08/14 04:14:55;;;;;;;11.40;4.95;;;;;;;16.35;56.37;98525.34;5221458;28;20099;-75
2022/08/14 04:17:46;;;;;;;5.78;4.20;;;;;;;16.32;55.34;98540.94;5214440;28;20071;-74
2022/08/14 04:20:41;;;;;;;4.97;4.43;;;;;;;16.09;55.79;98541.13;5201350;28;20198;-74
2022/08/14 04:23:46;;;;;;;6.78;3.97;;;;;;;15.92;56.70;98549.41;5212533;28;20067;-74
2022/08/14 04:26:46;;;;;;;6.53;4.63;;;;;;;16.04;56.02;98543.56;5230618;28;20057;-73
2022/08/14 04:29:38;;;;;;;7.88;4.55;;;;;;;16.01;57.72;98535.91;5226610;28;20092;-74
2022/08/14 04:32:29;;;;;;;6.20;4.88;;;;;;;16.14;57.89;98536.88;5231178;28;20049;-74
2022/08/14 04:35:39;;;;;;;6.68;4.55;;;;;;;16.38;57.57;98526.81;5226423;28;20491;-75
2022/08/14 04:45:07;;;;;;;8.43;5.97;;;;;;;16.17;58.57;98533.00;5223020;28;20165;-72
2022/08/14 04:48:12;;;;;;;8.35;4.95;;;;;;;16.17;57.77;98533.00;5226073;28;20158;-73
2022/08/14 04:51:26;;;;;;;7.43;5.00;;;;;;;16.27;57.72;98538.84;5216514;28;20055;-73
2022/08/14 04:54:19;;;;;;;10.15;5.03;;;;;;;16.24;59.80;98528.53;5225609;28;20078;-73
2022/08/14 04:57:10;;;;;;;7.68;5.13;;;;;;;16.40;58.85;98533.63;5229887;28;20104;-74
2022/08/14 05:00:04;;;;;;;13.52;5.57;;;;;;;16.45;58.89;98541.06;5225588;28;20091;-74
2022/08/14 05:02:55;;;;;;;7.67;5.80;;;;;;;16.43;60.19;98541.28;5224204;28;20429;-73
2022/08/14 05:05:50;;;;;;;15.02;5.55;;;;;;;16.50;60.63;98552.03;5227030;28;20135;-74
2022/08/14 05:08:43;;;;;;;7.43;5.90;;;;;;;16.67;58.88;98540.03;5207795;28;20087;-74
2022/08/14 05:11:49;;;;;;;5.82;5.22;;;;;;;16.91;58.50;98549.50;5222649;28;20495;-73
2022/08/14 05:14:40;;;;;;;10.65;5.40;;;;;;;16.84;57.82;98534.41;5222048;28;20130;-74
2022/08/14 05:17:42;;;;;;;7.15;5.63;;;;;;;17.04;57.13;98546.09;5222066;28;20055;-74
2022/08/14 05:20:45;;;;;;;6.53;5.22;;;;;;;17.05;57.05;98546.91;5213988;28;20056;-74
2022/08/14 05:23:55;;;;;;;10.25;6.00;;;;;;;17.14;58.48;98545.75;5208378;28;20056;-73
2022/08/14 05:26:46;;;;;;;8.75;5.80;;;;;;;17.24;57.75;98535.50;5225795;28;20044;-74
2022/08/14 05:29:36;;;;;;;7.25;5.30;;;;;;;17.45;57.56;98541.78;5225894;28;20130;-75
2022/08/14 05:32:26;;;;;;;6.78;5.50;;;;;;;17.72;57.36;98529.34;5221993;28;20131;-72
2022/08/14 05:35:18;;;;;;;8.07;6.07;;;;;;;17.60;58.47;98539.78;5227086;28;20171;-74
2022/08/14 05:38:15;;;;;;;11.43;5.53;;;;;;;17.80;57.73;98542.59;5229426;28;20398;-75
2022/08/14 05:41:20;;;;;;;9.60;6.00;;;;;;;17.94;57.07;98540.75;5212991;28;20056;-75
2022/08/14 05:44:11;;;;;;;7.88;5.60;;;;;;;17.88;56.94;98542.41;5224582;28;20056;-73
2022/08/14 05:47:01;;;;;;;7.20;5.45;;;;;;;17.99;56.77;98533.78;5226467;28;20517;-73
2022/08/14 05:49:52;;;;;;;9.10;4.78;;;;;;;18.23;55.43;98532.38;5227313;28;20053;-73
2022/08/14 05:52:42;;;;;;;6.65;4.63;;;;;;;18.47;55.38;98536.31;5222364;28;20056;-74
2022/08/14 05:55:33;;;;;;;6.65;4.80;;;;;;;18.77;53.04;98520.66;5227820;28;20049;-75
2022/08/14 05:58:31;;;;;;;4.93;3.90;;;;;;;18.99;51.86;98517.72;5222201;28;20051;-75
2022/08/14 06:01:30;;;;;;;7.47;4.60;;;;;;;19.25;51.07;98524.91;5225661;28;20048;-72
2022/08/14 06:04:21;;;;;;;5.15;4.45;;;;;;;19.51;50.55;98529.38;5221109;28;20040;-74
2022/08/14 06:07:14;;;;;;;7.45;5.10;;;;;;;19.57;50.51;98531.22;5223577;28;20041;-72
2022/08/14 06:10:07;;;;;;;9.32;4.45;;;;;;;19.64;50.54;98515.91;5219812;28;20045;-72
2022/08/14 06:13:00;;;;;;;7.10;4.00;;;;;;;19.65;50.61;98522.94;5222720;28;20128;-73
2022/08/14 06:15:51;;;;;;;;;;;;;;;19.84;49.88;98523.88;5222631;28;20127;-73
2022/08/14 06:18:42;;;;;;;6.30;4.55;;;;;;;19.98;48.64;98524.63;5222357;28;20011;-73
2022/08/14 06:21:32;;;;;;;6.57;5.22;;;;;;;20.13;48.42;98530.56;5225529;28;20057;-73
2022/08/14 06:24:32;;;;;;;5.93;4.30;;;;;;;20.16;48.93;98522.03;5224781;28;20466;-72
2022/08/14 06:27:24;;;;;;;7.03;4.65;;;;;;;20.23;48.66;98507.69;5138837;28;20094;-71
2022/08/14 06:30:26;;;;;;;5.72;4.15;;;;;;;20.14;48.91;98513.34;5140746;28;20520;-71
2022/08/14 06:33:31;;;;;;;5.15;4.63;;;;;;;20.09;49.54;98494.31;5142294;28;20054;-72
2022/08/14 06:36:41;;;;;;;4.75;4.35;;;;;;;20.33;48.92;98489.19;5146700;28;20053;-72
2022/08/14 06:39:33;;;;;;;5.10;3.97;;;;;;;20.42;48.17;98461.75;5147571;28;20077;-72
2022/08/14 06:42:26;;;;;;;5.60;4.18;;;;;;;20.62;48.84;98482.34;5143938;28;20214;-72
2022/08/14 06:45:22;;;;;;;5.90;4.00;;;;;;;20.88;46.75;98470.50;5141252;28;20054;-72
2022/08/14 06:48:22;;;;;;;7.23;4.30;;;;;;;20.95;46.71;98470.44;5135017;28;20825;-70
2022/08/14 06:51:13;;;;;;;23.85;6.40;;;;;;;21.26;49.04;98473.00;5138900;28;20061;-70
2022/08/14 06:54:03;;;;;;;3.90;3.42;;;;;;;21.23;47.47;98461.84;5137902;28;20261;-71
2022/08/14 06:56:57;;;;;;;;;;;;;;;21.72;45.57;98459.97;5143700;28;20083;-74
2022/08/14 06:59:48;;;;;;;4.63;3.80;;;;;;;21.88;44.90;98456.63;5139206;28;19958;-69
2022/08/14 07:05:50;;;;;;;6.72;3.47;;;;;;;22.28;43.25;98470.41;5135275;28;20055;-70
2022/08/14 07:08:47;;;;;;;6.43;3.53;;;;;;;22.24;43.96;98462.97;5140599;28;21760;-69
2022/08/14 07:11:41;;;;;;;4.55;3.10;;;;;;;22.10;43.04;98459.63;5141891;28;20061;-69
2022/08/14 07:14:31;;;;;;;3.67;3.10;;;;;;;22.35;43.79;98456.78;5139083;28;20117;-70
2022/08/14 07:17:21;;;;;;;4.43;3.83;;;;;;;22.52;43.83;98452.34;5128191;28;20181;-69
2022/08/14 07:20:12;;;;;;;4.35;3.30;;;;;;;22.64;43.59;98449.63;5150706;28;20089;-69
2022/08/14 07:23:08;;;;;;;7.82;3.38;;;;;;;22.50;43.35;98442.81;5138839;28;20413;-70
2022/08/14 07:26:11;;;;;;;3.60;3.30;;;;;;;22.86;42.57;98449.03;5136085;28;20058;-70
2022/08/14 07:29:02;;;;;;;4.32;3.20;;;;;;;23.16;41.92;98451.63;5141144;28;20054;-68
2022/08/14 07:31:55;;;;;;;3.20;2.90;;;;;;;23.33;41.68;98457.91;5139307;28;20053;-68
2022/08/14 07:34:45;;;;;;;3.25;2.95;;;;;;;23.21;43.01;98459.81;5138042;28;20054;-70
2022/08/14 07:37:36;;;;;;;3.95;2.80;;;;;;;24.22;39.90;98445.78;5133465;28;20043;-70
2022/08/14 07:40:26;;;;;;;4.85;3.20;;;;;;;24.56;39.77;98447.44;5136890;28;20516;-69
2022/08/14 07:43:20;;;;;;;3.83;3.33;;;;;;;26.17;37.08;98445.34;5139511;28;20050;-69
2022/08/14 07:46:13;;;;;;;3.60;2.90;;;;;;;27.77;33.40;98448.75;5140411;28;20046;-69
2022/08/14 07:49:10;;;;;;;6.57;2.80;;;;;;;28.67;33.37;98466.56;5136268;28;20058;-69
2022/08/14 07:52:07;;;;;;;2.85;2.65;;;;;;;29.57;30.33;98452.09;5137922;28;20053;-69
2022/08/14 07:54:59;;;;;;;3.08;2.75;;;;;;;29.98;30.33;98451.91;5136907;28;20157;-68
2022/08/14 07:57:50;;;;;;;2.88;2.67;;;;;;;30.09;29.38;98428.84;5138477;28;20046;-68
2022/08/14 08:00:43;;;;;;;4.95;2.88;;;;;;;30.55;29.12;98455.84;5140593;28;20162;-69
2022/08/14 08:03:44;;;;;;;3.00;2.55;;;;;;;30.80;28.68;98455.66;5140502;28;20524;-69
2022/08/14 08:06:41;;;;;;;2.78;2.35;;;;;;;31.41;28.71;98458.84;5131312;28;20050;-69
2022/08/14 08:09:34;;;;;;;5.95;2.67;;;;;;;32.08;27.52;98462.31;5137971;28;20062;-70
2022/08/14 08:12:27;;;;;;;2.58;2.13;;;;;;;31.91;27.55;98462.81;5136195;28;20061;-69
2022/08/14 08:15:24;;;;;;;4.43;2.63;;;;;;;31.31;28.44;98463.28;5137322;28;20051;-69
2022/08/14 08:18:16;;;;;;;2.80;2.55;;;;;;;31.15;28.42;98458.28;5138531;28;20051;-69
2022/08/14 08:21:18;;;;;;;2.72;2.30;;;;;;;29.88;30.71;98450.88;5138116;28;20625;-70
2022/08/14 08:24:09;;;;;;;3.42;2.90;;;;;;;31.25;28.56;98447.22;5138880;28;20070;-70
2022/08/14 08:27:00;;;;;;;4.85;2.08;;;;;;;32.38;26.41;98446.47;5137699;28;20098;-70
2022/08/14 08:29:50;;;;;;;2.45;2.25;;;;;;;32.80;26.77;98431.75;5137587;28;20058;-72
2022/08/14 08:32:42;;;;;;;2.85;2.45;;;;;;;33.30;27.92;98439.31;5140772;28;20178;-71
2022/08/14 08:35:37;;;;;;;4.30;2.58;;;;;;;33.45;26.22;98431.56;5140323;28;20078;-68
2022/08/14 08:38:40;;;;;;;3.70;2.35;;;;;;;33.96;23.97;98424.13;5141799;28;20062;-69
2022/08/14 08:41:50;;;;;;;2.95;2.40;;;;;;;34.19;25.37;98419.47;5135390;28;20155;-68
2022/08/14 08:44:43;;;;;;;5.47;2.25;;;;;;;34.66;24.16;98424.66;5138810;28;20062;-69
2022/08/14 08:47:39;;;;;;;2.38;2.10;;;;;;;33.88;24.00;98427.63;5135735;28;20194;-68
2022/08/14 08:50:33;;;;;;;2.03;1.88;;;;;;;33.83;24.07;98425.00;5141030;28;20058;-68
2022/08/14 08:53:30;;;;;;;2.50;2.30;;;;;;;34.68;23.59;98422.41;5142717;28;20489;-69
2022/08/14 08:56:20;;;;;;;8.05;2.10;;;;;;;34.88;24.61;98410.81;5138986;28;20516;-69
2022/08/14 08:59:31;;;;;;;3.00;2.15;;;;;;;34.40;24.94;98403.25;5142379;28;20528;-71
2022/08/14 09:02:23;;;;;;;4.13;2.20;;;;;;;34.68;23.31;98398.44;5134870;28;20053;-68
2022/08/14 09:05:16;;;;;;;2.92;2.53;;;;;;;34.88;23.55;98402.56;5139168;28;20327;-70
2022/08/14 09:08:17;;;;;;;2.30;2.00;;;;;;;35.30;23.26;98394.78;5141310;28;20049;-69
2022/08/14 09:11:23;;;;;;;1.95;1.85;;;;;;;35.14;22.47;98393.63;5136790;28;20509;-70
2022/08/14 09:14:14;;;;;;;2.70;2.50;;;;;;;35.91;22.09;98392.09;5133771;28;20086;-69
2022/08/14 09:17:07;;;;;;;3.20;2.08;;;;;;;35.82;22.68;98380.25;5126108;28;20401;-69
2022/08/14 09:19:58;;;;;;;3.35;2.05;;;;;;;35.85;22.37;98376.84;5128178;28;20097;-68
2022/08/14 09:22:53;;;;;;;2.40;2.20;;;;;;;36.52;21.76;98372.69;5134832;28;20079;-68
2022/08/14 09:25:47;;;;;;;3.40;2.17;;;;;;;36.67;21.43;98366.66;5134798;28;20055;-68
2022/08/14 09:28:51;;;;;;;2.53;2.13;;;;;;;36.29;21.94;98366.56;5139434;28;20170;-68
2022/08/14 09:31:45;;;;;;;5.72;2.05;;;;;;;36.13;22.02;98361.59;5150479;28;20047;-69
2022/08/14 09:34:55;;;;;;;3.47;1.80;;;;;;;36.38;21.83;98378.41;5138337;28;20058;-69
2022/08/14 09:37:54;;;;;;;3.22;2.20;;;;;;;36.56;21.91;98373.66;5145763;28;20054;-68
2022/08/14 09:41:12;;;;;;;3.80;2.13;;;;;;;36.85;21.03;98367.38;5133530;28;20055;-69
2022/08/14 09:44:28;;;;;;;5.35;2.22;;;;;;;36.53;21.85;98366.88;5133513;28;20062;-70
2022/08/14 09:47:20;;;;;;;7.45;2.40;;;;;;;36.02;21.27;98357.53;5141263;28;20054;-69
2022/08/14 09:50:28;;;;;;;4.22;1.77;;;;;;;36.70;20.60;98368.75;5143769;28;20425;-69
2022/08/14 09:53:39;;;;;;;2.40;2.20;;;;;;;36.75;21.69;98365.78;5143602;28;20043;-69
2022/08/14 09:56:50;;;;;;;2.45;2.00;;;;;;;35.38;20.93;98368.38;5144296;28;20054;-69
2022/08/14 09:59:48;;;;;;;3.15;2.70;;;;;;;35.21;21.59;98361.69;5143360;28;20054;-69
2022/08/14 10:02:51;;;;;;;2.65;2.45;;;;;;;34.69;22.84;98349.69;5147051;28;20050;-69
2022/08/14 10:05:41;;;;;;;3.70;2.35;;;;;;;34.87;22.90;98351.38;5145320;28;20064;-69
2022/08/14 10:08:45;;;;;;;3.45;2.20;;;;;;;34.86;22.27;98346.97;5139281;28;20507;-68
2022/08/14 10:11:51;;;;;;;3.05;2.70;;;;;;;34.35;22.33;98329.09;5131165;28;20478;-69
2022/08/14 10:14:49;;;;;;;3.90;2.50;;;;;;;35.01;22.07;98342.97;5134979;28;20058;-69
2022/08/14 10:17:43;;;;;;;2.78;2.35;;;;;;;35.17;22.19;98316.63;5131339;28;20043;-69
2022/08/14 10:20:43;;;;;;;3.25;2.55;;;;;;;35.74;21.12;98327.53;5142063;28;20050;-69
2022/08/14 10:23:48;;;;;;;4.93;2.67;;;;;;;35.82;21.15;98317.59;5140724;28;20137;-69
2022/08/14 10:26:42;;;;;;;2.58;2.38;;;;;;;35.14;22.21;98308.19;5123399;28;20061;-69
2022/08/14 10:29:38;;;;;;;3.30;2.35;;;;;;;36.02;20.44;98282.22;5142608;28;20136;-68
2022/08/14 10:32:29;;;;;;;3.42;2.28;;;;;;;36.12;21.20;98301.19;5132367;28;20132;-68
2022/08/14 10:35:43;;;;;;;3.30;2.70;;;;;;;36.00;21.53;98293.59;5137491;28;20566;-69
2022/08/14 10:38:37;;;;;;;5.70;2.60;;;;;;;36.15;21.17;98278.47;5139793;28;20054;-68
2022/08/14 10:41:40;;;;;;;4.00;2.38;;;;;;;35.36;21.77;98269.44;5142609;28;20047;-69
2022/08/14 10:44:40;;;;;;;2.60;2.40;;;;;;;35.45;21.21;98253.72;5135547;28;20076;-69
2022/08/14 10:47:39;;;;;;;2.77;2.43;;;;;;;34.98;22.15;98255.47;5138310;28;20046;-68
2022/08/14 10:50:52;;;;;;;3.80;2.50;;;;;;;35.75;22.07;98256.63;5135120;28;20055;-73
2022/08/14 10:53:53;;;;;;;;;;;;;;;36.11;21.34;98258.19;5136687;28;20062;-69
2022/08/14 10:56:46;;;;;;;2.42;2.30;;;;;;;35.06;21.97;98247.22;5134855;28;19976;-68
2022/08/14 10:59:44;;;;;;;2.72;2.20;;;;;;;35.20;21.48;98229.72;5140115;28;20045;-69
2022/08/14 11:02:38;;;;;;;2.60;2.40;;;;;;;35.55;22.08;98236.06;5139339;28;20053;-69
2022/08/14 11:05:47;;;;;;;3.88;2.80;;;;;;;34.69;21.54;98237.59;5137528;28;20065;-69
2022/08/14 11:08:46;;;;;;;2.75;2.47;;;;;;;34.80;22.81;98222.41;5141659;28;20181;-70
2022/08/14 11:11:42;;;;;;;2.95;2.75;;;;;;;35.60;21.02;98224.03;5144999;28;20054;-69
2022/08/14 11:14:32;;;;;;;2.90;2.60;;;;;;;35.63;20.43;98221.47;5144868;28;20060;-70
2022/08/14 11:17:24;;;;;;;4.68;2.60;;;;;;;34.82;21.19;98228.38;5140074;28;20099;-68
2022/08/14 11:20:19;;;;;;;3.25;2.40;;;;;;;34.42;21.23;98224.06;5142362;28;20050;-68
2022/08/14 11:23:14;;;;;;;4.78;2.80;;;;;;;35.34;20.97;98227.63;5140621;28;20065;-67
2022/08/14 11:26:07;;;;;;;5.95;2.92;;;;;;;34.46;21.54;98227.78;5137643;28;20077;-68
2022/08/14 11:29:04;;;;;;;2.80;2.60;;;;;;;33.81;21.98;98221.84;5139114;28;20058;-67
2022/08/14 11:31:58;;;;;;;3.75;2.72;;;;;;;33.97;22.35;98233.22;5138020;28;20061;-67
2022/08/14 11:34:48;;;;;;;3.60;2.53;;;;;;;33.96;22.49;98226.09;5136681;28;20059;-69
2022/08/14 11:37:58;;;;;;;2.90;2.55;;;;;;;33.80;22.16;98222.13;5137275;28;20086;-69
2022/08/14 11:40:48;;;;;;;2.65;2.45;;;;;;;34.44;21.55;98219.88;5144692;28;20505;-69
2022/08/14 11:43:46;;;;;;;2.92;2.47;;;;;;;35.22;21.65;98224.72;5143603;28;20054;-69
2022/08/14 11:46:48;;;;;;;3.13;2.72;;;;;;;35.54;21.01;98228.94;5136327;28;20142;-70
2022/08/14 11:49:39;;;;;;;3.13;2.83;;;;;;;34.25;21.85;98222.88;5138515;28;20046;-71
2022/08/14 11:52:36;;;;;;;5.32;2.72;;;;;;;34.74;20.94;98226.44;5136321;28;20091;-71
2022/08/14 11:55:37;;;;;;;3.97;2.88;;;;;;;34.34;22.23;98220.16;5134217;28;20417;-70
2022/08/14 11:58:34;;;;;;;3.03;2.78;;;;;;;34.33;21.89;98196.50;5134486;28;20054;-71
2022/08/14 12:01:29;;;;;;;2.92;2.70;;;;;;;34.25;22.52;98211.06;5136559;28;20058;-71
2022/08/14 12:04:20;;;;;;;4.93;2.85;;;;;;;34.44;22.35;98197.00;5134390;28;20058;-71
2022/08/14 12:07:23;;;;;;;3.10;2.70;;;;;;;34.34;22.13;98200.91;5137907;28;20038;-71
2022/08/14 12:10:16;;;;;;;5.90;2.83;;;;;;;34.38;21.89;98180.66;5120332;28;20042;-70
2022/08/14 12:13:31;;;;;;;3.47;2.90;;;;;;;33.94;22.83;98173.34;5135224;28;20775;-71
2022/08/14 12:16:24;;;;;;;4.65;3.00;;;;;;;33.59;22.51;98161.38;5133523;28;20097;-71
2022/08/14 12:19:15;;;;;;;3.40;2.78;;;;;;;34.04;22.05;98151.13;5137284;28;20042;-71
2022/08/14 12:22:05;;;;;;;4.75;2.85;;;;;;;34.68;22.01;98174.59;5141600;28;20066;-70
2022/08/14 12:24:56;;;;;;;3.75;2.45;;;;;;;33.78;21.77;98150.16;5130352;28;20146;-71
2022/08/14 12:27:50;;;;;;;7.22;2.97;;;;;;;33.66;22.29;98167.25;5167423;23;20054;-70
2022/08/14 12:30:47;;;;;;;2.90;2.70;;;;;;;33.99;21.74;98164.97;5175463;28;20056;-70
2022/08/14 12:33:43;;;;;;;3.25;2.95;;;;;;;33.67;23.14;98157.84;5168176;28;20077;-69
2022/08/14 12:36:42;;;;;;;3.35;2.55;;;;;;;33.17;22.08;98158.81;5179247;28;20187;-70
2022/08/14 12:39:34;;;;;;;3.33;2.85;;;;;;;33.99;21.66;98136.66;5162698;28;20049;-69
2022/08/14 12:42:34;;;;;;;2.90;2.60;;;;;;;34.03;22.67;98138.47;5180350;28;20062;-70
2022/08/14 12:45:34;;;;;;;3.30;2.65;;;;;;;34.52;20.80;98135.72;5176544;28;20056;-70
2022/08/14 12:48:27;;;;;;;2.90;2.70;;;;;;;34.16;21.65;98144.19;5182575;28;20049;-70
2022/08/14 12:51:27;;;;;;;4.30;2.65;;;;;;;33.51;22.00;98140.16;5185982;28;20425;-70
2022/08/14 12:54:19;;;;;;;3.20;2.90;;;;;;;33.62;22.48;98134.09;5185484;28;20051;-70
2022/08/14 12:57:17;;;;;;;3.13;2.83;;;;;;;33.99;22.66;98133.91;5188886;28;20073;-70
2022/08/14 13:00:17;;;;;;;3.13;2.83;;;;;;;34.29;21.64;98129.47;5188562;28;20049;-70
2022/08/14 13:03:27;;;;;;;3.67;3.03;;;;;;;34.00;21.52;98117.06;5171580;28;20064;-70
2022/08/14 13:06:23;;;;;;;3.55;2.70;;;;;;;34.02;20.74;98125.84;5185730;28;20061;-70
2022/08/14 13:09:14;;;;;;;2.90;2.58;;;;;;;33.73;21.06;98128.31;5184920;28;20068;-70
2022/08/14 13:12:04;;;;;;;4.93;2.85;;;;;;;33.90;21.84;98117.38;5184503;28;20272;-70
2022/08/14 13:15:21;;;;;;;3.45;2.50;;;;;;;34.31;21.68;98110.72;5182778;28;20570;-70
2022/08/14 13:18:15;;;;;;;4.00;2.72;;;;;;;33.63;21.56;98107.41;5167351;28;20144;-70
2022/08/14 13:21:06;;;;;;;3.93;2.63;;;;;;;33.71;21.46;98098.41;5168745;28;20056;-70
2022/08/14 13:24:02;;;;;;;3.75;2.70;;;;;;;33.84;21.20;98091.13;5184797;28;20508;-69
2022/08/14 13:26:57;;;;;;;5.55;2.75;;;;;;;33.72;21.76;98094.50;5180792;28;20048;-69
2022/08/14 13:29:51;;;;;;;2.75;2.55;;;;;;;33.56;21.70;98090.56;5173808;28;20055;-72
2022/08/14 13:32:43;;;;;;;3.95;2.60;;;;;;;34.11;20.73;98099.19;5169135;28;20133;-69
2022/08/14 13:35:36;;;;;;;2.40;2.20;;;;;;;34.07;21.95;98089.97;5169284;28;20112;-69
2022/08/14 13:38:28;;;;;;;5.17;2.87;;;;;;;33.93;21.00;98078.22;5159971;28;20175;-70
2022/08/14 13:41:22;;;;;;;2.80;2.60;;;;;;;33.75;20.78;98073.81;5185806;28;20147;-69
2022/08/14 13:44:26;;;;;;;5.13;2.70;;;;;;;33.46;21.16;98039.41;5180667;28;20057;-69
2022/08/14 13:47:18;;;;;;;6.90;2.40;;;;;;;33.66;21.50;98062.78;5183581;28;20625;-70
2022/08/14 13:50:14;;;;;;;2.67;2.37;;;;;;;33.88;21.28;98068.19;5180399;28;20081;-69
2022/08/14 13:53:12;;;;;;;2.60;2.40;;;;;;;33.72;20.76;98060.72;5178115;28;20280;-70
2022/08/14 13:56:02;;;;;;;3.45;2.38;;;;;;;33.91;20.71;98045.56;5178189;28;20058;-70
2022/08/14 13:58:57;;;;;;;2.88;2.65;;;;;;;33.59;20.66;98052.25;5173486;28;20418;-71
2022/08/14 14:01:48;;;;;;;2.95;2.60;;;;;;;33.35;21.49;98046.31;5175925;28;20113;-71
2022/08/14 14:04:43;;;;;;;2.65;2.45;;;;;;;33.09;21.95;98041.50;5178324;28;20056;-71